Terminal Aerodrome Forecast
Issued by NWS Charleston, SC

Home | Current Version | Previous Version | Text Only | Print | Product List | Glossary On
Versions: 1 2 3 4 5 6 7 8 9 10 11 12 13 14 15 16 17 18 19 20 21 22 23 24 25 26 27 28 29 30 31 32 33
000
FTUS42 KCHS 270200 AAB
TAFSAV
TAF AMD
KSAV 270259Z 2703/2724 00000KT P6SM MIFG SCT250
      TEMPO 2703/2707 4SM BR
     FM270800 00000KT 4SM BR BCFG SCT200
     FM271400 VRB04KT P6SM SCT025 SCT150
     FM272100 11006KT P6SM SCT025 BKN150=

USA.gov is the U.S. government's official web portal to all federal, state and local government web resources and services.